createdAt,value
2019-05-09T00:00:27.676Z,8.14
2019-05-09T00:02:54.112Z,8.15
2019-05-09T00:05:22.723Z,8.11
2019-05-09T00:07:48.115Z,8.06
2019-05-09T00:10:14.378Z,7.99
2019-05-09T00:12:40.415Z,7.89
2019-05-09T00:15:06.535Z,7.76
2019-05-09T00:17:33.785Z,7.72
2019-05-09T00:20:03.570Z,7.70
2019-05-09T00:22:29.570Z,7.72
2019-05-09T00:24:55.596Z,7.79
2019-05-09T00:27:23.140Z,7.81
2019-05-09T00:29:53.002Z,7.81
2019-05-09T00:32:34.095Z,7.80
2019-05-09T00:40:34.347Z,7.76
2019-05-09T00:43:00.315Z,7.75
2019-05-09T00:45:28.318Z,7.77
2019-05-09T00:47:54.426Z,7.77
2019-05-09T00:50:20.535Z,7.75
2019-05-09T00:52:46.442Z,7.76
2019-05-09T00:55:13.237Z,7.72
2019-05-09T00:57:39.355Z,7.72
2019-05-09T01:00:08.971Z,7.68
2019-05-09T01:02:35.157Z,7.67
2019-05-09T01:05:01.160Z,7.66
2019-05-09T01:07:27.066Z,7.66
2019-05-09T01:09:54.306Z,7.64
2019-05-09T01:12:20.531Z,7.63
2019-05-09T01:14:46.535Z,7.55
2019-05-09T01:17:13.603Z,7.55
2019-05-09T01:19:39.988Z,7.56
2019-05-09T01:22:06.114Z,7.56
2019-05-09T01:24:33.740Z,7.56
2019-05-09T01:27:00.017Z,7.52
2019-05-09T01:29:26.142Z,7.55
2019-05-09T01:31:54.202Z,7.49
2019-05-09T01:34:23.929Z,7.45
2019-05-09T01:37:04.054Z,7.42
2019-05-09T01:39:30.306Z,7.33
2019-05-09T01:41:56.444Z,7.35
2019-05-09T01:44:23.947Z,7.33
2019-05-09T01:46:50.197Z,7.32
2019-05-09T01:49:16.207Z,7.36
2019-05-09T01:51:44.356Z,7.30
2019-05-09T01:54:10.310Z,7.38
2019-05-09T01:56:36.427Z,7.38
2019-05-09T01:59:03.115Z,7.36
2019-05-09T02:01:29.438Z,7.35
2019-05-09T02:03:55.447Z,7.28
2019-05-09T02:06:24.126Z,7.28
2019-05-09T02:08:49.697Z,7.27
2019-05-09T02:11:15.810Z,7.24
2019-05-09T02:13:44.058Z,7.18
2019-05-09T02:16:13.998Z,7.17
2019-05-09T02:18:44.612Z,7.20
2019-05-09T02:21:13.852Z,7.20
2019-05-09T02:23:38.841Z,7.22
2019-05-09T02:26:04.957Z,7.17
2019-05-09T02:28:30.956Z,7.22
2019-05-09T02:30:56.964Z,7.23
2019-05-09T02:33:24.991Z,7.29
2019-05-09T02:35:56.683Z,7.35
2019-05-09T02:38:20.015Z,7.40
2019-05-09T02:40:48.696Z,7.44
2019-05-09T02:43:14.248Z,7.46
2019-05-09T02:45:52.636Z,7.44
2019-05-09T02:48:18.623Z,7.45
2019-05-09T02:50:44.285Z,7.48
2019-05-09T02:53:10.400Z,7.56
2019-05-09T02:55:38.738Z,7.63
2019-05-09T02:58:08.246Z,7.66
2019-05-09T03:00:48.373Z,7.73
2019-05-09T03:05:59.666Z,7.86
2019-05-09T03:08:25.783Z,7.92
2019-05-09T03:10:51.911Z,7.96
2019-05-09T03:13:19.076Z,7.99
2019-05-09T03:15:49.348Z,8.03
2019-05-09T03:18:14.787Z,8.07
2019-05-09T03:21:00.795Z,8.09
2019-05-09T03:23:28.495Z,8.12
2019-05-09T03:25:54.835Z,8.15
2019-05-09T03:31:13.078Z,8.21
2019-05-09T03:33:40.482Z,8.23
2019-05-09T03:36:07.805Z,8.24
2019-05-09T03:38:34.150Z,8.22
2019-05-09T03:41:00.254Z,8.24
2019-05-09T03:43:27.511Z,8.24
2019-05-09T03:45:58.634Z,8.27
2019-05-09T03:51:23.795Z,8.27
2019-05-09T03:53:49.840Z,8.27
2019-05-09T03:56:18.232Z,8.36
2019-05-09T03:58:44.291Z,8.41
2019-05-09T04:01:10.858Z,8.46
2019-05-09T04:03:37.887Z,8.51
2019-05-09T04:06:04.114Z,8.58
2019-05-09T04:08:30.145Z,8.62
2019-05-09T04:10:58.661Z,8.64
2019-05-09T04:13:28.154Z,8.68
2019-05-09T04:15:54.054Z,8.75
2019-05-09T04:18:20.063Z,8.80
2019-05-09T04:20:48.169Z,8.85
2019-05-09T04:23:14.134Z,8.93
2019-05-09T04:25:50.955Z,8.98
2019-05-09T04:28:17.739Z,9.03
2019-05-09T04:30:43.931Z,9.08
2019-05-09T04:33:10.082Z,9.12
2019-05-09T04:35:38.175Z,9.15
2019-05-09T04:38:04.227Z,9.18
2019-05-09T04:40:32.054Z,9.21
2019-05-09T04:43:10.896Z,9.26
2019-05-09T04:45:28.465Z,9.28
2019-05-09T04:47:54.511Z,9.31
2019-05-09T04:50:24.835Z,9.35
2019-05-09T04:52:48.560Z,9.37
2019-05-09T04:55:18.085Z,9.40
2019-05-09T04:57:43.526Z,9.42
2019-05-09T05:00:11.842Z,9.44
2019-05-09T05:02:42.556Z,9.49
2019-05-09T05:05:08.888Z,9.51
2019-05-09T05:07:37.599Z,9.52
2019-05-09T05:10:08.786Z,9.51
2019-05-09T05:12:33.734Z,9.53
2019-05-09T05:14:59.741Z,9.54
2019-05-09T05:17:28.310Z,9.56
2019-05-09T05:19:54.332Z,9.55
2019-05-09T05:22:24.836Z,9.57
2019-05-09T05:24:55.628Z,9.59
2019-05-09T05:27:20.662Z,9.59
2019-05-09T05:29:47.630Z,9.62
2019-05-09T05:32:18.585Z,9.65
2019-05-09T05:34:58.280Z,9.68
2019-05-09T05:37:24.478Z,9.71
2019-05-09T05:39:50.491Z,9.70
2019-05-09T05:42:17.609Z,9.68
2019-05-09T05:44:43.654Z,9.71
2019-05-09T05:47:20.723Z,9.76
2019-05-09T05:49:48.782Z,9.77
2019-05-09T05:52:15.015Z,9.78
2019-05-09T05:54:40.915Z,9.81
2019-05-09T05:57:08.417Z,9.78
2019-05-09T05:59:40.060Z,9.79
2019-05-09T06:02:03.318Z,9.78
2019-05-09T06:04:29.404Z,9.78
2019-05-09T06:06:55.317Z,9.81
2019-05-09T06:09:21.335Z,9.81
2019-05-09T06:11:48.511Z,9.83
2019-05-09T06:14:15.207Z,9.87
2019-05-09T06:16:41.252Z,9.92
2019-05-09T06:19:09.025Z,9.95
2019-05-09T06:21:40.091Z,9.97
2019-05-09T06:24:08.464Z,10.01
2019-05-09T06:26:34.260Z,10.04
2019-05-09T06:29:00.396Z,10.05
2019-05-09T06:31:28.428Z,10.06
2019-05-09T06:33:54.434Z,10.09
2019-05-09T06:36:20.543Z,10.12
2019-05-09T06:38:48.793Z,10.15
2019-05-09T06:41:14.507Z,10.19
2019-05-09T06:43:42.423Z,10.24
2019-05-09T06:46:18.246Z,10.26
2019-05-09T06:48:44.262Z,10.29
2019-05-09T06:51:10.310Z,10.31
2019-05-09T06:53:38.063Z,10.34
2019-05-09T06:56:04.442Z,10.37
2019-05-09T06:58:31.174Z,10.41
2019-05-09T07:00:59.183Z,10.41
2019-05-09T07:03:28.346Z,10.37
2019-05-09T07:06:02.270Z,10.41
2019-05-09T07:08:31.500Z,10.41
2019-05-09T07:10:58.427Z,10.34
2019-05-09T07:13:24.737Z,10.36
2019-05-09T07:15:50.856Z,10.34
2019-05-09T07:18:18.385Z,10.37
2019-05-09T07:20:44.669Z,10.40
2019-05-09T07:23:10.678Z,10.44
2019-05-09T07:25:41.890Z,10.48
2019-05-09T07:28:07.902Z,10.53
2019-05-09T07:30:38.885Z,10.51
2019-05-09T07:33:08.524Z,10.50
2019-05-09T07:35:34.619Z,10.46
2019-05-09T07:38:00.733Z,10.48
2019-05-09T07:40:30.290Z,10.43
2019-05-09T07:42:54.658Z,10.48
2019-05-09T07:45:20.665Z,10.53
2019-05-09T07:47:47.875Z,10.61
2019-05-09T07:50:14.228Z,10.66
2019-05-09T07:52:40.230Z,10.71
2019-05-09T07:55:08.517Z,10.75
2019-05-09T07:57:34.398Z,10.83
2019-05-09T08:00:00.509Z,10.84
2019-05-09T08:02:28.222Z,10.86
2019-05-09T08:04:54.577Z,10.91
2019-05-09T08:07:20.635Z,10.94
2019-05-09T08:09:47.568Z,10.99
2019-05-09T08:12:13.746Z,11.06
2019-05-09T08:14:39.755Z,11.05
2019-05-09T08:17:08.405Z,11.08
2019-05-09T08:19:33.705Z,11.09
2019-05-09T08:21:59.638Z,11.09
2019-05-09T08:24:27.820Z,11.12
2019-05-09T08:26:53.555Z,11.12
2019-05-09T08:29:20.026Z,11.09
2019-05-09T08:31:48.575Z,11.12
2019-05-09T08:34:14.335Z,11.11
2019-05-09T08:36:40.442Z,11.12
2019-05-09T08:39:08.297Z,11.14
2019-05-09T08:41:34.474Z,11.17
2019-05-09T08:44:00.566Z,11.20
2019-05-09T08:46:28.623Z,11.19
2019-05-09T08:48:57.397Z,11.25
2019-05-09T08:51:36.983Z,11.27
2019-05-09T08:53:57.711Z,11.30
2019-05-09T08:56:23.486Z,11.33
2019-05-09T08:58:49.603Z,11.34
2019-05-09T09:01:27.298Z,11.37
2019-05-09T09:03:43.808Z,11.39
2019-05-09T09:06:09.915Z,11.40
2019-05-09T09:08:38.009Z,11.38
2019-05-09T09:11:04.014Z,11.37
2019-05-09T09:13:30.119Z,11.38
2019-05-09T09:16:12.081Z,11.41
2019-05-09T09:18:24.044Z,11.41
2019-05-09T09:20:50.148Z,11.40
2019-05-09T09:23:18.058Z,11.42
2019-05-09T09:25:44.264Z,11.42
2019-05-09T09:28:10.376Z,11.42
2019-05-09T09:30:38.546Z,11.47
2019-05-09T09:33:04.932Z,11.49
2019-05-09T09:35:31.065Z,11.53
2019-05-09T09:37:58.075Z,11.58
2019-05-09T09:40:24.388Z,11.63
2019-05-09T09:42:50.393Z,11.69
2019-05-09T09:45:18.332Z,11.70
2019-05-09T09:47:44.536Z,11.71
2019-05-09T09:50:11.140Z,11.71
2019-05-09T09:52:38.429Z,11.73
2019-05-09T09:55:05.791Z,11.76
2019-05-09T09:57:31.908Z,11.74
2019-05-09T09:59:59.839Z,11.74
2019-05-09T10:02:30.623Z,11.75
2019-05-09T10:04:56.675Z,11.77
2019-05-09T10:07:22.782Z,11.78
2019-05-09T10:09:48.992Z,11.82
2019-05-09T10:12:15.171Z,11.85
2019-05-09T10:14:43.604Z,11.85
2019-05-09T10:17:28.202Z,11.92
2019-05-09T10:19:56.267Z,11.99
2019-05-09T10:22:27.250Z,12.05
2019-05-09T10:24:53.430Z,12.17
2019-05-09T10:27:20.015Z,12.21
2019-05-09T10:29:48.017Z,12.30
2019-05-09T10:32:18.210Z,12.44
2019-05-09T10:34:43.984Z,12.57
2019-05-09T10:37:10.141Z,12.69
2019-05-09T10:39:38.113Z,12.80
2019-05-09T10:42:22.558Z,12.87
2019-05-09T10:44:50.569Z,12.92
2019-05-09T10:47:24.439Z,12.92
2019-05-09T10:49:50.440Z,12.97
2019-05-09T10:52:18.223Z,13.03
2019-05-09T10:54:44.461Z,13.05
2019-05-09T10:57:10.570Z,13.05
2019-05-09T10:59:37.692Z,13.04
2019-05-09T11:02:05.155Z,13.04
2019-05-09T11:04:31.164Z,13.03
2019-05-09T11:06:58.292Z,13.05
2019-05-09T11:09:24.617Z,13.08
2019-05-09T11:11:50.629Z,13.02
2019-05-09T11:14:32.147Z,12.95
2019-05-09T11:16:49.035Z,12.87
2019-05-09T11:19:12.612Z,12.80
2019-05-09T11:21:39.325Z,12.81
2019-05-09T11:24:08.133Z,12.80
2019-05-09T11:26:33.436Z,12.74
2019-05-09T11:28:59.557Z,12.68
2019-05-09T11:31:25.577Z,12.60
2019-05-09T11:33:51.609Z,12.57
2019-05-09T11:36:21.092Z,12.54
2019-05-09T11:38:45.738Z,12.45
2019-05-09T11:41:11.793Z,12.48
2019-05-09T11:43:38.951Z,12.45
2019-05-09T11:46:05.302Z,12.47
2019-05-09T11:48:31.318Z,12.50
2019-05-09T11:50:58.014Z,12.49
2019-05-09T11:53:25.000Z,12.37
2019-05-09T11:55:54.369Z,12.33
2019-05-09T11:58:20.486Z,12.30
2019-05-09T12:00:48.286Z,12.26
2019-05-09T12:03:14.511Z,12.28
2019-05-09T12:05:40.521Z,12.30
2019-05-09T12:08:08.392Z,12.35
2019-05-09T12:10:34.692Z,12.39
2019-05-09T12:13:00.790Z,12.44
2019-05-09T12:15:29.091Z,12.57
2019-05-09T12:18:01.580Z,12.67
2019-05-09T12:20:22.779Z,12.74
2019-05-09T12:22:48.690Z,12.82
2019-05-09T12:25:14.695Z,12.90
2019-05-09T12:27:40.743Z,12.95
2019-05-09T12:30:07.249Z,12.98
2019-05-09T12:32:33.254Z,13.02
2019-05-09T12:34:59.296Z,13.01
2019-05-09T12:37:25.406Z,13.07
2019-05-09T12:39:52.006Z,13.10
2019-05-09T12:42:18.745Z,13.10
2019-05-09T12:44:45.615Z,13.09
2019-05-09T12:47:12.773Z,13.09
2019-05-09T12:49:38.774Z,13.13
2019-05-09T12:52:04.880Z,13.14
2019-05-09T12:54:30.892Z,13.11
2019-05-09T12:56:59.138Z,13.11
2019-05-09T12:59:24.816Z,13.08
2019-05-09T13:01:50.819Z,13.06
2019-05-09T13:04:16.839Z,13.06
2019-05-09T13:06:42.840Z,13.03
2019-05-09T13:09:08.965Z,13.03
2019-05-09T13:11:34.864Z,13.02
2019-05-09T13:14:00.881Z,13.01
2019-05-09T13:16:44.227Z,12.95
2019-05-09T13:21:39.563Z,12.94
2019-05-09T13:24:08.113Z,12.99
2019-05-09T13:26:33.617Z,13.05
2019-05-09T13:29:00.303Z,13.10
2019-05-09T13:31:29.514Z,13.14
2019-05-09T13:33:54.822Z,13.19
2019-05-09T13:36:20.830Z,13.23
2019-05-09T13:38:57.597Z,13.28
2019-05-09T13:41:14.944Z,13.27
2019-05-09T13:43:47.638Z,13.32
2019-05-09T13:46:09.111Z,13.46
2019-05-09T13:48:57.291Z,13.51
2019-05-09T13:51:03.180Z,13.57
2019-05-09T13:53:29.105Z,13.55
2019-05-09T13:55:57.655Z,13.57
2019-05-09T13:58:23.272Z,13.61
2019-05-09T14:00:58.969Z,13.66
2019-05-09T14:03:18.108Z,13.68
2019-05-09T14:05:44.480Z,13.67
2019-05-09T14:08:11.728Z,13.56
2019-05-09T14:10:38.786Z,13.49
2019-05-09T14:13:10.065Z,13.45
2019-05-09T14:15:33.134Z,13.37
2019-05-09T14:17:59.269Z,13.28
2019-05-09T14:20:27.172Z,13.29
2019-05-09T14:22:53.435Z,13.28
2019-05-09T14:25:19.948Z,13.28
2019-05-09T14:27:49.708Z,13.24
2019-05-09T14:30:14.100Z,13.15
2019-05-09T14:32:40.455Z,13.13
2019-05-09T14:35:08.519Z,13.04
2019-05-09T14:37:34.660Z,12.98
2019-05-09T14:40:04.434Z,12.94
2019-05-09T14:42:29.129Z,12.90
2019-05-09T14:44:55.199Z,12.88
2019-05-09T14:47:21.311Z,12.80
2019-05-09T14:49:49.746Z,12.74
2019-05-09T14:52:15.230Z,12.71
2019-05-09T14:54:41.231Z,12.69
2019-05-09T14:57:09.704Z,12.65
2019-05-09T14:59:35.408Z,12.65
2019-05-09T15:02:01.408Z,12.62
2019-05-09T15:04:27.924Z,12.62
2019-05-09T15:06:54.020Z,12.62
2019-05-09T15:09:20.126Z,12.61
2019-05-09T15:11:48.425Z,12.57
2019-05-09T15:14:14.236Z,12.51
2019-05-09T15:16:40.255Z,12.44
2019-05-09T15:19:08.363Z,12.41
2019-05-09T15:21:34.290Z,12.36
2019-05-09T15:24:00.218Z,12.31
2019-05-09T15:26:27.570Z,12.25
2019-05-09T15:28:53.748Z,12.23
2019-05-09T15:31:19.855Z,12.17
2019-05-09T15:33:48.426Z,12.14
2019-05-09T15:36:13.774Z,12.10
2019-05-09T15:38:39.878Z,12.05
2019-05-09T15:41:12.014Z,12.01
2019-05-09T15:43:34.184Z,12.00
2019-05-09T15:46:02.190Z,11.95
2019-05-09T15:48:28.219Z,11.91
2019-05-09T15:50:54.228Z,11.86
2019-05-09T15:53:20.374Z,11.82
2019-05-09T15:55:48.067Z,11.78
2019-05-09T15:58:14.295Z,11.76
2019-05-09T16:00:40.449Z,11.73
2019-05-09T16:03:06.441Z,11.69
2019-05-09T16:05:32.577Z,11.66
2019-05-09T16:07:58.720Z,11.65
2019-05-09T16:10:24.723Z,11.63
2019-05-09T16:12:50.827Z,11.60
2019-05-09T16:15:18.284Z,11.58
2019-05-09T16:17:44.538Z,11.55
2019-05-09T16:20:10.651Z,11.50
2019-05-09T16:22:39.179Z,11.46
2019-05-09T16:25:06.195Z,11.43
2019-05-09T16:27:32.252Z,11.38
2019-05-09T16:29:58.337Z,11.30
2019-05-09T16:32:24.442Z,11.28
2019-05-09T16:34:50.554Z,11.23
2019-05-09T16:37:16.664Z,11.13
2019-05-09T16:39:42.779Z,11.11
2019-05-09T16:42:08.791Z,11.09
2019-05-09T16:44:34.931Z,11.06
2019-05-09T16:47:01.030Z,11.01
2019-05-09T16:49:29.325Z,10.93
2019-05-09T16:51:55.149Z,10.91
2019-05-09T16:54:23.006Z,10.89
2019-05-09T16:56:49.006Z,10.89
2019-05-09T16:59:17.546Z,10.83
2019-05-09T17:01:46.673Z,10.78
2019-05-09T17:04:11.738Z,10.76
2019-05-09T17:06:38.280Z,10.72
2019-05-09T17:09:04.555Z,10.70
2019-05-09T17:11:30.597Z,10.68
2019-05-09T17:13:58.363Z,10.65
2019-05-09T17:16:24.762Z,10.60
2019-05-09T17:18:50.840Z,10.56
2019-05-09T17:21:24.131Z,10.54
2019-05-09T17:23:47.743Z,10.54
2019-05-09T17:26:13.859Z,10.50
2019-05-09T17:28:39.866Z,10.48
2019-05-09T17:31:07.935Z,10.47
2019-05-09T17:33:34.137Z,10.47
2019-05-09T17:36:00.147Z,10.42
2019-05-09T17:38:27.877Z,10.42
2019-05-09T17:40:54.163Z,10.44
2019-05-09T17:43:20.286Z,10.37
2019-05-09T17:45:47.823Z,10.37
2019-05-09T17:48:14.194Z,10.38
2019-05-09T17:50:40.295Z,10.33
2019-05-09T17:53:08.428Z,10.33
2019-05-09T17:55:34.364Z,10.31
2019-05-09T17:58:00.389Z,10.28
2019-05-09T18:00:27.970Z,10.24
2019-05-09T18:02:54.239Z,10.23
2019-05-09T18:05:20.376Z,10.21
2019-05-09T18:07:48.523Z,10.21
2019-05-09T18:10:14.823Z,10.15
2019-05-09T18:12:40.930Z,10.13
2019-05-09T18:15:07.746Z,10.15
2019-05-09T18:17:33.886Z,10.13
2019-05-09T18:20:02.436Z,10.12
2019-05-09T18:22:28.578Z,10.10
2019-05-09T18:24:54.674Z,10.08
2019-05-09T18:27:20.793Z,10.07
2019-05-09T18:29:47.483Z,10.07
2019-05-09T18:32:15.714Z,10.07
2019-05-09T18:34:41.875Z,10.08
2019-05-09T18:37:08.243Z,10.06
2019-05-09T18:39:34.295Z,10.03
2019-05-09T18:42:00.406Z,10.00
2019-05-09T18:44:27.528Z,9.98
2019-05-09T18:47:02.425Z,9.94
2019-05-09T18:49:28.514Z,9.92
2019-05-09T18:52:03.252Z,9.90
2019-05-09T18:54:22.522Z,9.85
2019-05-09T18:56:48.525Z,9.78
2019-05-09T18:59:15.322Z,9.77
2019-05-09T19:01:41.346Z,9.79
2019-05-09T19:04:07.608Z,9.81
2019-05-09T19:06:33.751Z,9.78
2019-05-09T19:08:59.785Z,9.75
2019-05-09T19:11:25.843Z,9.74
2019-05-09T19:13:51.829Z,9.75
2019-05-09T19:16:19.887Z,9.77
2019-05-09T19:18:47.983Z,9.77
2019-05-09T19:21:15.997Z,9.77
2019-05-09T19:23:42.137Z,9.74
2019-05-09T19:26:09.954Z,9.73
2019-05-09T19:28:36.088Z,9.71
2019-05-09T19:31:02.194Z,9.68
2019-05-09T19:33:28.261Z,9.62
2019-05-09T19:35:54.263Z,9.59
2019-05-09T19:38:20.269Z,9.59
2019-05-09T19:40:46.175Z,9.57
2019-05-09T19:43:12.280Z,9.58
2019-05-09T19:45:38.358Z,9.58
2019-05-09T19:48:04.492Z,9.57
2019-05-09T19:50:31.070Z,9.60
2019-05-09T19:52:57.179Z,9.61
2019-05-09T19:55:23.330Z,9.55
2019-05-09T19:57:49.326Z,9.54
2019-05-09T20:00:15.963Z,9.51
2019-05-09T20:02:42.290Z,9.49
2019-05-09T20:05:08.688Z,9.49
2019-05-09T20:07:34.692Z,9.50
2019-05-09T20:10:11.606Z,9.47
2019-05-09T20:12:45.193Z,9.49
2019-05-09T20:15:13.557Z,9.49
2019-05-09T20:17:39.661Z,9.50
2019-05-09T20:20:05.971Z,9.48
2019-05-09T20:22:31.992Z,9.48
2019-05-09T20:24:57.877Z,9.45
2019-05-09T20:27:23.998Z,9.42
2019-05-09T20:29:50.020Z,9.43
2019-05-09T20:32:16.018Z,9.43
2019-05-09T20:34:42.130Z,9.42
2019-05-09T20:37:08.227Z,9.43
2019-05-09T20:39:34.267Z,9.38
2019-05-09T20:42:00.382Z,9.39
2019-05-09T20:44:26.524Z,9.38
2019-05-09T20:46:52.514Z,9.38
2019-05-09T20:49:18.624Z,9.39
2019-05-09T20:51:44.647Z,9.39
2019-05-09T20:54:20.366Z,9.38
2019-05-09T20:56:38.760Z,9.34
2019-05-09T20:59:04.865Z,9.30
2019-05-09T21:01:30.870Z,9.28
2019-05-09T21:04:00.230Z,9.21
2019-05-09T21:06:24.881Z,9.19
2019-05-09T21:08:50.987Z,9.18
2019-05-09T21:11:16.998Z,9.19
2019-05-09T21:13:48.491Z,9.22
2019-05-09T21:16:10.949Z,9.21
2019-05-09T21:18:37.132Z,9.22
2019-05-09T21:21:03.413Z,9.26
2019-05-09T21:23:29.454Z,9.26
2019-05-09T21:25:55.490Z,9.25
2019-05-09T21:28:21.591Z,9.27
2019-05-09T21:30:47.625Z,9.26
2019-05-09T21:33:13.971Z,9.26
2019-05-09T21:35:40.018Z,9.26
2019-05-09T21:38:06.132Z,9.24
2019-05-09T21:40:32.101Z,9.22
2019-05-09T21:42:58.153Z,9.16
2019-05-09T21:45:24.251Z,9.14
2019-05-09T21:47:50.362Z,9.15
2019-05-09T21:50:16.474Z,9.18
2019-05-09T21:52:42.423Z,9.21
2019-05-09T21:55:08.621Z,9.21
2019-05-09T21:57:34.760Z,9.23
2019-05-09T22:00:00.868Z,9.25
2019-05-09T22:02:27.127Z,9.26
2019-05-09T22:04:53.202Z,9.24
2019-05-09T22:07:19.317Z,9.22
2019-05-09T22:09:45.514Z,9.20
2019-05-09T22:12:11.624Z,9.20
2019-05-09T22:14:37.723Z,9.18
2019-05-09T22:17:08.552Z,9.16
2019-05-09T22:19:34.564Z,9.18
2019-05-09T22:22:00.665Z,9.17
2019-05-09T22:24:26.591Z,9.22
2019-05-09T22:26:52.586Z,9.27
2019-05-09T22:29:18.615Z,9.26
2019-05-09T22:31:44.723Z,9.26
2019-05-09T22:34:10.747Z,9.28
2019-05-09T22:36:36.850Z,9.30
2019-05-09T22:39:05.575Z,9.33
2019-05-09T22:41:31.567Z,9.32
2019-05-09T22:43:57.569Z,9.29
2019-05-09T22:46:23.677Z,9.27
2019-05-09T22:48:49.685Z,9.28
2019-05-09T22:51:15.798Z,9.29
2019-05-09T22:53:41.802Z,9.28
2019-05-09T22:56:07.905Z,9.30
2019-05-09T22:58:34.015Z,9.30
2019-05-09T23:01:00.118Z,9.31
2019-05-09T23:03:26.252Z,9.33
2019-05-09T23:05:52.337Z,9.35
2019-05-09T23:08:18.435Z,9.35
2019-05-09T23:10:44.444Z,9.38
2019-05-09T23:13:10.552Z,9.39
2019-05-09T23:15:36.766Z,9.39
2019-05-09T23:18:02.967Z,9.40
2019-05-09T23:23:23.373Z,9.41
2019-05-09T23:25:49.477Z,9.42
2019-05-09T23:28:15.584Z,9.44
2019-05-09T23:30:41.607Z,9.44
2019-05-09T23:33:07.761Z,9.42
2019-05-09T23:35:33.762Z,9.44
2019-05-09T23:37:59.677Z,9.45
2019-05-09T23:40:25.678Z,9.45
2019-05-09T23:42:51.779Z,9.46
2019-05-09T23:45:17.889Z,9.43
2019-05-09T23:47:44.203Z,9.43
2019-05-09T23:50:10.320Z,9.43
2019-05-09T23:52:36.469Z,9.47
2019-05-09T23:55:21.296Z,9.45
2019-05-09T23:58:06.141Z,9.44
